sensor_id;sensor_type;location;lat;lon;timestamp;pressure;altitude;pressure_sealevel;temperature;humidity
15604;BME280;7902;49.042;9.092;2024-03-08T00:01:10;99047.00;;;9.57;56.37
15604;BME280;7902;49.042;9.092;2024-03-08T00:03:36;99042.50;;;9.59;56.82
15604;BME280;7902;49.042;9.092;2024-03-08T00:06:02;99044.50;;;9.43;56.80
15604;BME280;7902;49.042;9.092;2024-03-08T00:08:28;99036.97;;;9.39;56.80
15604;BME280;7902;49.042;9.092;2024-03-08T00:10:54;99037.38;;;9.45;56.69
15604;BME280;7902;49.042;9.092;2024-03-08T00:13:20;99041.47;;;9.49;57.66
15604;BME280;7902;49.042;9.092;2024-03-08T00:15:46;99039.03;;;9.59;56.18
15604;BME280;7902;49.042;9.092;2024-03-08T00:18:12;99036.00;;;9.52;56.46
15604;BME280;7902;49.042;9.092;2024-03-08T00:20:38;99028.97;;;9.53;56.67
15604;BME280;7902;49.042;9.092;2024-03-08T00:23:04;99024.47;;;9.55;56.81
15604;BME280;7902;49.042;9.092;2024-03-08T00:25:30;99015.56;;;9.57;56.81
15604;BME280;7902;49.042;9.092;2024-03-08T00:27:56;99028.25;;;9.51;57.06
15604;BME280;7902;49.042;9.092;2024-03-08T00:30:22;99020.19;;;9.29;56.36
15604;BME280;7902;49.042;9.092;2024-03-08T00:32:49;99022.50;;;9.20;57.31
15604;BME280;7902;49.042;9.092;2024-03-08T00:35:15;99018.72;;;9.12;57.59
15604;BME280;7902;49.042;9.092;2024-03-08T00:37:41;99013.16;;;9.16;56.76
15604;BME280;7902;49.042;9.092;2024-03-08T00:40:12;99013.06;;;9.05;57.18
15604;BME280;7902;49.042;9.092;2024-03-08T00:42:38;99015.78;;;9.04;57.32
15604;BME280;7902;49.042;9.092;2024-03-08T00:45:05;99007.81;;;9.05;57.16
15604;BME280;7902;49.042;9.092;2024-03-08T00:47:31;99018.91;;;8.96;57.06
15604;BME280;7902;49.042;9.092;2024-03-08T00:49:57;99000.34;;;8.87;57.57
15604;BME280;7902;49.042;9.092;2024-03-08T00:52:23;98999.19;;;8.78;57.38
15604;BME280;7902;49.042;9.092;2024-03-08T00:54:52;99004.03;;;8.84;57.61
15604;BME280;7902;49.042;9.092;2024-03-08T00:57:18;99001.19;;;8.87;57.46
15604;BME280;7902;49.042;9.092;2024-03-08T00:59:44;98994.19;;;8.88;57.41
15604;BME280;7902;49.042;9.092;2024-03-08T01:02:11;98991.25;;;8.79;56.88
15604;BME280;7902;49.042;9.092;2024-03-08T01:04:36;98984.94;;;8.69;57.47
15604;BME280;7902;49.042;9.092;2024-03-08T01:07:02;98989.19;;;8.58;57.90
15604;BME280;7902;49.042;9.092;2024-03-08T01:09:28;98982.41;;;8.55;57.76
15604;BME280;7902;49.042;9.092;2024-03-08T01:11:55;98988.28;;;8.59;58.19
15604;BME280;7902;49.042;9.092;2024-03-08T01:14:21;98982.88;;;8.48;57.72
15604;BME280;7902;49.042;9.092;2024-03-08T01:16:48;98984.03;;;8.44;58.35
15604;BME280;7902;49.042;9.092;2024-03-08T01:19:14;98982.72;;;8.51;57.92
15604;BME280;7902;49.042;9.092;2024-03-08T01:21:41;98984.09;;;8.56;57.73
15604;BME280;7902;49.042;9.092;2024-03-08T01:24:08;98982.16;;;8.46;58.32
15604;BME280;7902;49.042;9.092;2024-03-08T01:26:33;98978.47;;;8.35;57.57
15604;BME280;7902;49.042;9.092;2024-03-08T01:29:02;98978.09;;;8.42;57.96
15604;BME280;7902;49.042;9.092;2024-03-08T01:31:29;98965.00;;;8.42;57.93
15604;BME280;7902;49.042;9.092;2024-03-08T01:33:56;98968.34;;;8.44;57.83
15604;BME280;7902;49.042;9.092;2024-03-08T01:36:22;98964.56;;;8.48;57.75
15604;BME280;7902;49.042;9.092;2024-03-08T01:38:49;98964.09;;;8.55;57.78
15604;BME280;7902;49.042;9.092;2024-03-08T01:41:15;98961.75;;;8.38;57.95
15604;BME280;7902;49.042;9.092;2024-03-08T01:43:44;98948.47;;;8.41;57.79
15604;BME280;7902;49.042;9.092;2024-03-08T01:46:17;98953.00;;;8.52;58.24
15604;BME280;7902;49.042;9.092;2024-03-08T01:48:44;98940.53;;;8.43;57.41
15604;BME280;7902;49.042;9.092;2024-03-08T01:51:11;98944.47;;;8.48;57.79
15604;BME280;7902;49.042;9.092;2024-03-08T01:53:38;98950.78;;;8.46;57.66
15604;BME280;7902;49.042;9.092;2024-03-08T01:56:05;98941.63;;;8.38;57.76
15604;BME280;7902;49.042;9.092;2024-03-08T01:58:32;98938.63;;;8.45;57.62
15604;BME280;7902;49.042;9.092;2024-03-08T02:00:59;98939.63;;;8.29;57.94
15604;BME280;7902;49.042;9.092;2024-03-08T02:03:25;98928.22;;;8.30;57.81
15604;BME280;7902;49.042;9.092;2024-03-08T02:05:51;98923.47;;;8.23;57.97
15604;BME280;7902;49.042;9.092;2024-03-08T02:08:17;98916.03;;;8.17;58.04
15604;BME280;7902;49.042;9.092;2024-03-08T02:10:44;98920.56;;;8.27;57.87
15604;BME280;7902;49.042;9.092;2024-03-08T02:13:11;98915.16;;;8.30;57.53
15604;BME280;7902;49.042;9.092;2024-03-08T02:15:57;98912.19;;;8.22;57.76
15604;BME280;7902;49.042;9.092;2024-03-08T02:18:25;98913.28;;;8.32;57.58
15604;BME280;7902;49.042;9.092;2024-03-08T02:20:52;98907.88;;;8.21;57.68
15604;BME280;7902;49.042;9.092;2024-03-08T02:23:21;98907.34;;;8.16;57.79
15604;BME280;7902;49.042;9.092;2024-03-08T02:25:47;98903.03;;;8.15;57.77
15604;BME280;7902;49.042;9.092;2024-03-08T02:28:14;98901.81;;;8.21;57.44
15604;BME280;7902;49.042;9.092;2024-03-08T02:30:40;98899.50;;;8.16;57.39
15604;BME280;7902;49.042;9.092;2024-03-08T02:33:07;98886.34;;;8.18;57.36
15604;BME280;7902;49.042;9.092;2024-03-08T02:35:35;98894.59;;;8.24;57.55
15604;BME280;7902;49.042;9.092;2024-03-08T02:38:02;98891.03;;;8.25;57.52
15604;BME280;7902;49.042;9.092;2024-03-08T02:40:29;98880.34;;;8.16;57.62
15604;BME280;7902;49.042;9.092;2024-03-08T02:42:55;98886.41;;;8.16;57.41
15604;BME280;7902;49.042;9.092;2024-03-08T02:45:21;98882.13;;;8.15;57.82
15604;BME280;7902;49.042;9.092;2024-03-08T02:47:47;98887.97;;;8.06;57.59
15604;BME280;7902;49.042;9.092;2024-03-08T02:50:15;98880.97;;;8.19;58.28
15604;BME280;7902;49.042;9.092;2024-03-08T02:52:44;98888.09;;;8.17;57.30
15604;BME280;7902;49.042;9.092;2024-03-08T02:55:12;98880.66;;;8.11;57.39
15604;BME280;7902;49.042;9.092;2024-03-08T02:57:41;98881.94;;;8.18;57.41
15604;BME280;7902;49.042;9.092;2024-03-08T03:00:07;98871.56;;;8.17;57.53
15604;BME280;7902;49.042;9.092;2024-03-08T03:02:36;98869.72;;;8.19;57.24
15604;BME280;7902;49.042;9.092;2024-03-08T03:05:03;98873.88;;;8.21;57.24
15604;BME280;7902;49.042;9.092;2024-03-08T03:07:33;98870.50;;;8.19;57.09
15604;BME280;7902;49.042;9.092;2024-03-08T03:10:02;98864.03;;;8.25;57.03
15604;BME280;7902;49.042;9.092;2024-03-08T03:12:28;98863.94;;;8.26;57.05
15604;BME280;7902;49.042;9.092;2024-03-08T03:14:54;98859.19;;;8.06;57.29
15604;BME280;7902;49.042;9.092;2024-03-08T03:17:25;98862.03;;;8.03;57.43
15604;BME280;7902;49.042;9.092;2024-03-08T03:19:52;98860.03;;;8.07;57.72
15604;BME280;7902;49.042;9.092;2024-03-08T03:22:18;98861.94;;;8.17;57.02
15604;BME280;7902;49.042;9.092;2024-03-08T03:24:45;98861.72;;;8.08;57.25
15604;BME280;7902;49.042;9.092;2024-03-08T03:27:14;98857.41;;;7.94;57.49
15604;BME280;7902;49.042;9.092;2024-03-08T03:29:41;98859.19;;;7.93;57.69
15604;BME280;7902;49.042;9.092;2024-03-08T03:32:12;98865.25;;;7.94;57.73
15604;BME280;7902;49.042;9.092;2024-03-08T03:34:38;98852.66;;;7.86;57.90
15604;BME280;7902;49.042;9.092;2024-03-08T03:37:05;98856.66;;;7.92;57.91
15604;BME280;7902;49.042;9.092;2024-03-08T03:39:32;98852.34;;;7.91;57.55
15604;BME280;7902;49.042;9.092;2024-03-08T03:42:00;98854.56;;;7.84;57.66
15604;BME280;7902;49.042;9.092;2024-03-08T03:44:28;98845.31;;;7.79;57.65
15604;BME280;7902;49.042;9.092;2024-03-08T03:46:54;98843.84;;;7.75;57.97
15604;BME280;7902;49.042;9.092;2024-03-08T03:49:20;98840.09;;;7.79;57.73
15604;BME280;7902;49.042;9.092;2024-03-08T03:51:46;98842.94;;;7.76;57.79
15604;BME280;7902;49.042;9.092;2024-03-08T03:54:12;98840.09;;;7.79;57.64
15604;BME280;7902;49.042;9.092;2024-03-08T03:56:38;98841.88;;;7.78;57.82
15604;BME280;7902;49.042;9.092;2024-03-08T03:59:06;98843.66;;;7.78;57.78
15604;BME280;7902;49.042;9.092;2024-03-08T04:01:33;98838.72;;;7.73;57.84
15604;BME280;7902;49.042;9.092;2024-03-08T04:03:59;98838.63;;;7.75;58.05
15604;BME280;7902;49.042;9.092;2024-03-08T04:06:25;98840.50;;;7.73;57.49
15604;BME280;7902;49.042;9.092;2024-03-08T04:08:51;98837.53;;;7.65;57.99
15604;BME280;7902;49.042;9.092;2024-03-08T04:11:17;98828.56;;;7.69;57.89
15604;BME280;7902;49.042;9.092;2024-03-08T04:13:43;98836.28;;;7.58;58.07
15604;BME280;7902;49.042;9.092;2024-03-08T04:16:09;98835.16;;;7.62;58.22
15604;BME280;7902;49.042;9.092;2024-03-08T04:18:37;98835.72;;;7.53;58.41
15604;BME280;7902;49.042;9.092;2024-03-08T04:21:06;98834.00;;;7.39;58.77
15604;BME280;7902;49.042;9.092;2024-03-08T04:23:33;98834.47;;;7.31;58.97
15604;BME280;7902;49.042;9.092;2024-03-08T04:26:04;98827.31;;;7.21;59.32
15604;BME280;7902;49.042;9.092;2024-03-08T04:28:32;98819.59;;;7.19;59.10
15604;BME280;7902;49.042;9.092;2024-03-08T04:30:58;98825.09;;;7.15;58.98
15604;BME280;7902;49.042;9.092;2024-03-08T04:33:26;98821.44;;;7.17;58.67
15604;BME280;7902;49.042;9.092;2024-03-08T04:35:52;98819.19;;;7.25;58.77
15604;BME280;7902;49.042;9.092;2024-03-08T04:38:18;98818.25;;;7.26;58.68
15604;BME280;7902;49.042;9.092;2024-03-08T04:40:45;98815.56;;;7.28;59.09
15604;BME280;7902;49.042;9.092;2024-03-08T04:43:11;98811.91;;;7.30;58.84
15604;BME280;7902;49.042;9.092;2024-03-08T04:45:36;98818.81;;;7.31;58.34
15604;BME280;7902;49.042;9.092;2024-03-08T04:48:03;98808.28;;;7.33;58.67
15604;BME280;7902;49.042;9.092;2024-03-08T04:50:29;98804.91;;;7.31;58.44
15604;BME280;7902;49.042;9.092;2024-03-08T04:52:55;98810.00;;;7.20;59.16
15604;BME280;7902;49.042;9.092;2024-03-08T04:55:21;98807.00;;;7.12;59.28
15604;BME280;7902;49.042;9.092;2024-03-08T04:57:48;98806.53;;;7.19;59.28
15604;BME280;7902;49.042;9.092;2024-03-08T05:00:14;98808.88;;;7.24;59.29
15604;BME280;7902;49.042;9.092;2024-03-08T05:02:41;98794.75;;;7.26;58.60
15604;BME280;7902;49.042;9.092;2024-03-08T05:05:08;98798.38;;;7.38;58.39
15604;BME280;7902;49.042;9.092;2024-03-08T05:07:36;98801.91;;;7.37;58.70
15604;BME280;7902;49.042;9.092;2024-03-08T05:10:02;98799.00;;;7.41;58.38
15604;BME280;7902;49.042;9.092;2024-03-08T05:12:29;98799.00;;;7.41;58.92
15604;BME280;7902;49.042;9.092;2024-03-08T05:14:55;98805.16;;;7.40;58.25
15604;BME280;7902;49.042;9.092;2024-03-08T05:17:21;98805.56;;;7.34;58.66
15604;BME280;7902;49.042;9.092;2024-03-08T05:19:46;98799.47;;;7.48;58.57
15604;BME280;7902;49.042;9.092;2024-03-08T05:22:12;98796.69;;;7.37;58.40
15604;BME280;7902;49.042;9.092;2024-03-08T05:24:39;98795.31;;;7.31;58.75
15604;BME280;7902;49.042;9.092;2024-03-08T05:27:05;98793.44;;;7.33;58.66
15604;BME280;7902;49.042;9.092;2024-03-08T05:29:31;98786.78;;;7.42;58.75
15604;BME280;7902;49.042;9.092;2024-03-08T05:31:56;98790.63;;;7.36;58.57
15604;BME280;7902;49.042;9.092;2024-03-08T05:34:23;98789.34;;;7.29;58.82
15604;BME280;7902;49.042;9.092;2024-03-08T05:36:50;98788.69;;;7.26;58.77
15604;BME280;7902;49.042;9.092;2024-03-08T05:39:17;98784.31;;;7.26;58.65
15604;BME280;7902;49.042;9.092;2024-03-08T05:41:43;98788.16;;;7.21;58.96
15604;BME280;7902;49.042;9.092;2024-03-08T05:44:10;98789.94;;;7.20;59.23
15604;BME280;7902;49.042;9.092;2024-03-08T05:46:36;98790.50;;;7.11;59.35
15604;BME280;7902;49.042;9.092;2024-03-08T05:49:03;98793.41;;;7.06;59.75
15604;BME280;7902;49.042;9.092;2024-03-08T05:51:32;98787.47;;;7.04;58.90
15604;BME280;7902;49.042;9.092;2024-03-08T05:54:03;98795.94;;;7.08;59.44
15604;BME280;7902;49.042;9.092;2024-03-08T05:56:34;98784.94;;;7.03;59.41
15604;BME280;7902;49.042;9.092;2024-03-08T05:59:00;98786.97;;;7.12;59.26
15604;BME280;7902;49.042;9.092;2024-03-08T06:01:26;98780.47;;;7.05;59.31
15604;BME280;7902;49.042;9.092;2024-03-08T06:03:53;98779.84;;;7.01;58.90
15604;BME280;7902;49.042;9.092;2024-03-08T06:06:24;98777.09;;;7.03;59.68
15604;BME280;7902;49.042;9.092;2024-03-08T06:08:51;98780.25;;;7.08;59.06
15604;BME280;7902;49.042;9.092;2024-03-08T06:11:18;98780.63;;;7.02;59.26
15604;BME280;7902;49.042;9.092;2024-03-08T06:13:45;98778.22;;;6.99;59.77
15604;BME280;7902;49.042;9.092;2024-03-08T06:16:11;98775.06;;;6.94;59.63
15604;BME280;7902;49.042;9.092;2024-03-08T06:18:37;98778.22;;;6.99;59.60
15604;BME280;7902;49.042;9.092;2024-03-08T06:21:04;98768.00;;;6.96;58.98
15604;BME280;7902;49.042;9.092;2024-03-08T06:23:33;98779.28;;;6.96;59.37
15604;BME280;7902;49.042;9.092;2024-03-08T06:25:59;98777.34;;;6.86;59.71
15604;BME280;7902;49.042;9.092;2024-03-08T06:28:25;98779.38;;;6.81;59.71
15604;BME280;7902;49.042;9.092;2024-03-08T06:30:51;98777.16;;;6.75;60.09
15604;BME280;7902;49.042;9.092;2024-03-08T06:33:17;98785.19;;;6.72;60.42
15604;BME280;7902;49.042;9.092;2024-03-08T06:35:43;98782.28;;;6.76;60.44
15604;BME280;7902;49.042;9.092;2024-03-08T06:38:09;98783.69;;;6.68;60.25
15604;BME280;7902;49.042;9.092;2024-03-08T06:40:37;98784.44;;;6.70;60.66
15604;BME280;7902;49.042;9.092;2024-03-08T06:43:03;98783.69;;;6.82;60.55
15604;BME280;7902;49.042;9.092;2024-03-08T06:45:32;98787.22;;;6.81;59.86
15604;BME280;7902;49.042;9.092;2024-03-08T06:47:57;98787.78;;;6.86;60.02
15604;BME280;7902;49.042;9.092;2024-03-08T06:50:23;98784.53;;;6.82;60.57
15604;BME280;7902;49.042;9.092;2024-03-08T06:52:49;98782.56;;;6.86;60.06
15604;BME280;7902;49.042;9.092;2024-03-08T06:55:19;98787.84;;;6.84;60.05
15604;BME280;7902;49.042;9.092;2024-03-08T06:57:45;98781.44;;;6.90;60.11
15604;BME280;7902;49.042;9.092;2024-03-08T07:00:11;98780.50;;;6.91;60.42
15604;BME280;7902;49.042;9.092;2024-03-08T07:02:46;98784.78;;;6.92;60.52
15604;BME280;7902;49.042;9.092;2024-03-08T07:05:15;98776.72;;;7.09;60.10
15604;BME280;7902;49.042;9.092;2024-03-08T07:07:42;98786.00;;;7.27;60.14
15604;BME280;7902;49.042;9.092;2024-03-08T07:10:08;98779.34;;;7.36;59.38
15604;BME280;7902;49.042;9.092;2024-03-08T07:12:39;98780.41;;;7.46;59.29
15604;BME280;7902;49.042;9.092;2024-03-08T07:15:05;98779.66;;;7.44;59.64
15604;BME280;7902;49.042;9.092;2024-03-08T07:17:31;98776.66;;;7.50;59.14
15604;BME280;7902;49.042;9.092;2024-03-08T07:20:00;98773.03;;;7.53;59.40
15604;BME280;7902;49.042;9.092;2024-03-08T07:22:33;98774.03;;;7.77;58.98
15604;BME280;7902;49.042;9.092;2024-03-08T07:24:59;98763.47;;;7.78;58.92
15604;BME280;7902;49.042;9.092;2024-03-08T07:27:51;98770.69;;;7.75;59.14
15604;BME280;7902;49.042;9.092;2024-03-08T07:30:22;98769.00;;;7.86;58.95
15604;BME280;7902;49.042;9.092;2024-03-08T07:33:07;98765.06;;;7.93;58.66
15604;BME280;7902;49.042;9.092;2024-03-08T07:35:33;98761.28;;;7.98;58.71
15604;BME280;7902;49.042;9.092;2024-03-08T07:38:04;98760.38;;;8.11;58.95
15604;BME280;7902;49.042;9.092;2024-03-08T07:40:40;98765.91;;;8.19;58.05
15604;BME280;7902;49.042;9.092;2024-03-08T07:43:10;98753.78;;;8.18;58.36
15604;BME280;7902;49.042;9.092;2024-03-08T07:45:37;98767.06;;;8.15;58.36
15604;BME280;7902;49.042;9.092;2024-03-08T07:48:04;98753.56;;;8.21;58.60
15604;BME280;7902;49.042;9.092;2024-03-08T07:50:39;98758.63;;;8.37;58.49
15604;BME280;7902;49.042;9.092;2024-03-08T07:53:06;98752.56;;;8.36;58.21
15604;BME280;7902;49.042;9.092;2024-03-08T07:55:35;98752.75;;;8.46;58.01
15604;BME280;7902;49.042;9.092;2024-03-08T07:58:04;98753.91;;;8.55;57.82
15604;BME280;7902;49.042;9.092;2024-03-08T08:00:30;98748.66;;;8.55;57.92
15604;BME280;7902;49.042;9.092;2024-03-08T08:02:59;98741.75;;;8.54;57.94
15604;BME280;7902;49.042;9.092;2024-03-08T08:05:25;98735.88;;;8.63;57.72
15604;BME280;7902;49.042;9.092;2024-03-08T08:07:51;98743.09;;;8.59;57.96
15604;BME280;7902;49.042;9.092;2024-03-08T08:10:18;98737.41;;;8.78;56.90
15604;BME280;7902;49.042;9.092;2024-03-08T08:12:48;98733.84;;;8.79;57.59
15604;BME280;7902;49.042;9.092;2024-03-08T08:15:14;98738.66;;;8.85;57.39
15604;BME280;7902;49.042;9.092;2024-03-08T08:17:46;98744.31;;;8.79;57.47
15604;BME280;7902;49.042;9.092;2024-03-08T08:20:13;98741.41;;;8.71;57.23
15604;BME280;7902;49.042;9.092;2024-03-08T08:22:42;98739.41;;;8.74;57.27
15604;BME280;7902;49.042;9.092;2024-03-08T08:25:11;98735.91;;;8.87;56.75
15604;BME280;7902;49.042;9.092;2024-03-08T08:27:38;98736.16;;;8.84;56.93
15604;BME280;7902;49.042;9.092;2024-03-08T08:30:11;98735.81;;;8.88;56.49
15604;BME280;7902;49.042;9.092;2024-03-08T08:32:37;98729.97;;;8.72;57.56
15604;BME280;7902;49.042;9.092;2024-03-08T08:35:05;98725.00;;;8.93;57.28
15604;BME280;7902;49.042;9.092;2024-03-08T08:37:32;98721.47;;;8.94;57.03
15604;BME280;7902;49.042;9.092;2024-03-08T08:39:58;98721.56;;;8.92;56.92
15604;BME280;7902;49.042;9.092;2024-03-08T08:42:24;98714.28;;;8.72;57.52
15604;BME280;7902;49.042;9.092;2024-03-08T08:44:51;98708.03;;;8.98;57.42
15604;BME280;7902;49.042;9.092;2024-03-08T08:47:17;98718.34;;;8.76;57.33
15604;BME280;7902;49.042;9.092;2024-03-08T08:49:45;98719.66;;;8.70;57.35
15604;BME280;7902;49.042;9.092;2024-03-08T08:52:12;98708.09;;;8.73;56.98
15604;BME280;7902;49.042;9.092;2024-03-08T08:54:38;98706.88;;;8.66;57.38
15604;BME280;7902;49.042;9.092;2024-03-08T08:57:04;98711.16;;;8.67;57.06
15604;BME280;7902;49.042;9.092;2024-03-08T08:59:36;98713.75;;;8.67;57.54
15604;BME280;7902;49.042;9.092;2024-03-08T09:02:02;98704.78;;;8.71;57.36
15604;BME280;7902;49.042;9.092;2024-03-08T09:04:31;98701.94;;;8.74;56.94
15604;BME280;7902;49.042;9.092;2024-03-08T09:06:57;98706.00;;;8.78;57.43
15604;BME280;7902;49.042;9.092;2024-03-08T09:09:23;98703.66;;;8.86;56.96
15604;BME280;7902;49.042;9.092;2024-03-08T09:11:49;98702.31;;;9.04;56.64
15604;BME280;7902;49.042;9.092;2024-03-08T09:14:15;98693.03;;;9.00;56.60
15604;BME280;7902;49.042;9.092;2024-03-08T09:16:41;98695.47;;;8.91;56.58
15604;BME280;7902;49.042;9.092;2024-03-08T09:19:07;98694.63;;;8.90;57.16
15604;BME280;7902;49.042;9.092;2024-03-08T09:21:33;98694.44;;;8.93;57.07
15604;BME280;7902;49.042;9.092;2024-03-08T09:24:01;98697.47;;;8.87;56.45
15604;BME280;7902;49.042;9.092;2024-03-08T09:26:27;98686.34;;;8.96;57.22
15604;BME280;7902;49.042;9.092;2024-03-08T09:28:53;98683.03;;;8.94;56.73
15604;BME280;7902;49.042;9.092;2024-03-08T09:31:21;98684.06;;;9.15;55.93
15604;BME280;7902;49.042;9.092;2024-03-08T09:33:47;98680.34;;;9.07;56.67
15604;BME280;7902;49.042;9.092;2024-03-08T09:36:13;98676.13;;;9.04;56.56
15604;BME280;7902;49.042;9.092;2024-03-08T09:38:40;98678.91;;;9.03;56.64
15604;BME280;7902;49.042;9.092;2024-03-08T09:41:06;98672.13;;;9.11;56.94
15604;BME280;7902;49.042;9.092;2024-03-08T09:43:32;98667.59;;;9.13;56.78
15604;BME280;7902;49.042;9.092;2024-03-08T09:45:58;98672.31;;;8.97;56.96
15604;BME280;7902;49.042;9.092;2024-03-08T09:48:25;98669.53;;;9.11;56.60
15604;BME280;7902;49.042;9.092;2024-03-08T09:50:52;98670.13;;;9.15;56.38
15604;BME280;7902;49.042;9.092;2024-03-08T09:53:18;98668.25;;;9.17;56.26
15604;BME280;7902;49.042;9.092;2024-03-08T09:55:44;98673.34;;;9.18;56.78
15604;BME280;7902;49.042;9.092;2024-03-08T09:58:12;98671.22;;;9.23;56.60
15604;BME280;7902;49.042;9.092;2024-03-08T10:00:54;98666.13;;;9.22;56.38
15604;BME280;7902;49.042;9.092;2024-03-08T10:03:23;98669.69;;;9.21;55.93
15604;BME280;7902;49.042;9.092;2024-03-08T10:05:49;98661.44;;;9.14;55.87
15604;BME280;7902;49.042;9.092;2024-03-08T10:08:15;98656.00;;;9.17;56.61
15604;BME280;7902;49.042;9.092;2024-03-08T10:10:41;98655.66;;;9.22;56.68
15604;BME280;7902;49.042;9.092;2024-03-08T10:13:09;98658.38;;;9.20;55.98
15604;BME280;7902;49.042;9.092;2024-03-08T10:15:36;98650.00;;;9.15;57.08
15604;BME280;7902;49.042;9.092;2024-03-08T10:18:02;98650.75;;;9.17;56.47
15604;BME280;7902;49.042;9.092;2024-03-08T10:20:30;98642.06;;;9.28;56.41
15604;BME280;7902;49.042;9.092;2024-03-08T10:22:59;98639.69;;;9.25;56.35
15604;BME280;7902;49.042;9.092;2024-03-08T10:25:25;98644.59;;;9.30;56.66
15604;BME280;7902;49.042;9.092;2024-03-08T10:27:51;98630.75;;;9.27;56.61
15604;BME280;7902;49.042;9.092;2024-03-08T10:30:17;98635.53;;;9.34;56.59
15604;BME280;7902;49.042;9.092;2024-03-08T10:32:45;98633.16;;;9.31;56.80
15604;BME280;7902;49.042;9.092;2024-03-08T10:35:12;98628.41;;;9.36;56.84
15604;BME280;7902;49.042;9.092;2024-03-08T10:40:18;98633.66;;;9.36;55.86
15604;BME280;7902;49.042;9.092;2024-03-08T10:43:03;98621.28;;;9.49;56.42
15604;BME280;7902;49.042;9.092;2024-03-08T10:48:49;98611.06;;;9.57;55.93
15604;BME280;7902;49.042;9.092;2024-03-08T10:50:50;98614.88;;;9.53;56.88
15604;BME280;7902;49.042;9.092;2024-03-08T10:53:18;98617.97;;;9.58;56.68
15604;BME280;7902;49.042;9.092;2024-03-08T10:55:49;98614.28;;;9.49;56.01
15604;BME280;7902;49.042;9.092;2024-03-08T10:58:15;98613.72;;;9.68;56.31
15604;BME280;7902;49.042;9.092;2024-03-08T11:00:42;98609.88;;;9.50;56.00
15604;BME280;7902;49.042;9.092;2024-03-08T11:06:17;98602.25;;;9.58;55.99
15604;BME280;7902;49.042;9.092;2024-03-08T11:08:45;98600.34;;;9.60;56.63
15604;BME280;7902;49.042;9.092;2024-03-08T11:11:32;98599.72;;;9.56;56.57
15604;BME280;7902;49.042;9.092;2024-03-08T11:13:58;98599.38;;;9.61;56.38
15604;BME280;7902;49.042;9.092;2024-03-08T11:18:53;98591.53;;;9.61;56.03
15604;BME280;7902;49.042;9.092;2024-03-08T11:21:20;98583.78;;;9.59;56.73
15604;BME280;7902;49.042;9.092;2024-03-08T11:24:13;98577.94;;;9.56;56.95
15604;BME280;7902;49.042;9.092;2024-03-08T11:26:40;98576.63;;;9.61;56.04
15604;BME280;7902;49.042;9.092;2024-03-08T11:29:33;98567.69;;;9.75;56.70
15604;BME280;7902;49.042;9.092;2024-03-08T11:32:08;98567.22;;;9.70;56.77
15604;BME280;7902;49.042;9.092;2024-03-08T11:34:40;98565.94;;;9.87;56.36
15604;BME280;7902;49.042;9.092;2024-03-08T11:37:12;98558.53;;;9.81;55.92
15604;BME280;7902;49.042;9.092;2024-03-08T11:39:48;98554.22;;;9.80;56.62
15604;BME280;7902;49.042;9.092;2024-03-08T11:42:15;98553.41;;;9.90;56.47
15604;BME280;7902;49.042;9.092;2024-03-08T11:44:44;98550.31;;;9.96;56.45
15604;BME280;7902;49.042;9.092;2024-03-08T11:47:11;98547.69;;;9.96;56.47
15604;BME280;7902;49.042;9.092;2024-03-08T11:49:38;98548.63;;;9.95;56.68
15604;BME280;7902;49.042;9.092;2024-03-08T11:52:05;98546.75;;;9.97;55.96
15604;BME280;7902;49.042;9.092;2024-03-08T11:54:31;98535.00;;;10.12;55.47
15604;BME280;7902;49.042;9.092;2024-03-08T11:56:57;98534.09;;;9.91;56.30
15604;BME280;7902;49.042;9.092;2024-03-08T11:59:29;98531.59;;;9.90;56.94
15604;BME280;7902;49.042;9.092;2024-03-08T12:02:06;98531.22;;;9.94;55.71
15604;BME280;7902;49.042;9.092;2024-03-08T12:04:32;98519.06;;;10.04;57.14
15604;BME280;7902;49.042;9.092;2024-03-08T12:07:02;98519.53;;;9.98;56.79
15604;BME280;7902;49.042;9.092;2024-03-08T12:09:28;98513.00;;;9.93;56.21
15604;BME280;7902;49.042;9.092;2024-03-08T12:11:55;98503.66;;;10.11;55.70
15604;BME280;7902;49.042;9.092;2024-03-08T12:14:21;98507.72;;;10.04;55.85
15604;BME280;7902;49.042;9.092;2024-03-08T12:16:50;98489.59;;;10.23;56.25
15604;BME280;7902;49.042;9.092;2024-03-08T12:19:16;98486.16;;;10.11;56.38
15604;BME280;7902;49.042;9.092;2024-03-08T12:21:42;98483.84;;;10.29;55.92
15604;BME280;7902;49.042;9.092;2024-03-08T12:24:15;98482.28;;;10.27;56.49
15604;BME280;7902;49.042;9.092;2024-03-08T12:26:46;98479.94;;;10.24;56.73
15604;BME280;7902;49.042;9.092;2024-03-08T12:31:42;98471.38;;;10.22;57.04
15604;BME280;7902;49.042;9.092;2024-03-08T12:34:08;98475.25;;;10.27;56.36
15604;BME280;7902;49.042;9.092;2024-03-08T12:36:36;98472.03;;;10.35;56.40
15604;BME280;7902;49.042;9.092;2024-03-08T12:39:05;98462.28;;;10.26;55.75
15604;BME280;7902;49.042;9.092;2024-03-08T12:41:39;98461.06;;;10.30;56.28
15604;BME280;7902;49.042;9.092;2024-03-08T12:44:05;98451.53;;;10.29;56.58
15604;BME280;7902;49.042;9.092;2024-03-08T12:46:33;98449.72;;;10.40;55.74
15604;BME280;7902;49.042;9.092;2024-03-08T12:49:00;98448.34;;;10.46;56.41
15604;BME280;7902;49.042;9.092;2024-03-08T12:51:26;98434.09;;;10.39;56.46
15604;BME280;7902;49.042;9.092;2024-03-08T12:53:55;98430.50;;;10.61;55.72
15604;BME280;7902;49.042;9.092;2024-03-08T12:56:39;98429.22;;;10.55;56.39
15604;BME280;7902;49.042;9.092;2024-03-08T12:59:07;98420.38;;;10.56;56.34
15604;BME280;7902;49.042;9.092;2024-03-08T13:01:34;98420.56;;;10.64;56.45
15604;BME280;7902;49.042;9.092;2024-03-08T13:04:04;98410.97;;;10.74;56.82
15604;BME280;7902;49.042;9.092;2024-03-08T13:06:32;98413.97;;;10.70;56.01
15604;BME280;7902;49.042;9.092;2024-03-08T13:08:58;98402.78;;;10.68;56.45
15604;BME280;7902;49.042;9.092;2024-03-08T13:11:24;98395.22;;;10.74;56.49
15604;BME280;7902;49.042;9.092;2024-03-08T13:13:51;98394.66;;;10.71;56.24
15604;BME280;7902;49.042;9.092;2024-03-08T13:16:18;98400.22;;;10.77;55.98
15604;BME280;7902;49.042;9.092;2024-03-08T13:18:47;98386.78;;;10.71;56.57
15604;BME280;7902;49.042;9.092;2024-03-08T13:21:16;98385.81;;;10.72;56.28
15604;BME280;7902;49.042;9.092;2024-03-08T13:23:45;98375.09;;;10.84;56.45
15604;BME280;7902;49.042;9.092;2024-03-08T13:26:15;98368.22;;;10.93;56.31
15604;BME280;7902;49.042;9.092;2024-03-08T13:28:48;98368.53;;;10.99;57.00
15604;BME280;7902;49.042;9.092;2024-03-08T13:31:17;98361.50;;;11.00;55.52
15604;BME280;7902;49.042;9.092;2024-03-08T13:33:44;98353.56;;;10.90;56.58
15604;BME280;7902;49.042;9.092;2024-03-08T13:36:12;98359.94;;;10.97;56.18